createdAt,value
2022-07-28T00:02:12.545Z,18.70
2022-07-28T00:04:44.705Z,18.60
2022-07-28T00:07:16.857Z,18.70
2022-07-28T00:09:49.074Z,18.70
2022-07-28T00:12:21.159Z,18.70
2022-07-28T00:14:53.098Z,18.70
2022-07-28T00:17:25.315Z,18.60
2022-07-28T00:19:57.418Z,18.60
2022-07-28T00:22:30.151Z,18.60
2022-07-28T00:25:03.102Z,18.60
2022-07-28T00:27:35.957Z,18.60
2022-07-28T00:30:10.093Z,18.60
2022-07-28T00:32:42.967Z,18.50
2022-07-28T00:35:15.690Z,18.50
2022-07-28T00:37:47.692Z,18.50
2022-07-28T00:40:21.254Z,18.40
2022-07-28T00:42:53.275Z,18.50
2022-07-28T00:45:25.314Z,18.40
2022-07-28T00:47:57.380Z,18.40
2022-07-28T00:50:29.807Z,18.30
2022-07-28T00:53:02.684Z,18.30
2022-07-28T00:56:05.413Z,18.30
2022-07-28T00:58:31.597Z,18.20
2022-07-28T01:01:08.881Z,18.10
2022-07-28T01:03:45.342Z,18.10
2022-07-28T01:06:32.547Z,18.00
2022-07-28T01:09:54.985Z,18.00
2022-07-28T01:12:51.039Z,17.90
2022-07-28T01:15:44.450Z,17.80
2022-07-28T01:18:31.567Z,17.70
2022-07-28T01:21:13.202Z,17.70
2022-07-28T01:24:21.730Z,17.60
2022-07-28T01:27:10.647Z,17.60
2022-07-28T01:30:17.038Z,17.50
2022-07-28T01:33:12.271Z,17.40
2022-07-28T01:36:02.844Z,17.40
2022-07-28T01:38:47.303Z,17.30
2022-07-28T01:41:23.429Z,17.30
2022-07-28T01:44:02.907Z,17.20
2022-07-28T01:46:38.541Z,17.10
2022-07-28T01:49:13.871Z,17.10
2022-07-28T01:51:48.159Z,17.00
2022-07-28T01:54:23.066Z,16.90
2022-07-28T01:57:01.069Z,16.90
2022-07-28T01:59:34.084Z,16.80
2022-07-28T02:02:08.969Z,16.80
2022-07-28T02:04:44.219Z,16.70
2022-07-28T02:07:19.524Z,16.70
2022-07-28T02:09:54.825Z,16.60
2022-07-28T02:12:30.516Z,16.60
2022-07-28T02:15:06.456Z,16.50
2022-07-28T02:17:44.893Z,16.50
2022-07-28T02:20:18.512Z,16.40
2022-07-28T02:22:53.097Z,16.40
2022-07-28T02:25:27.825Z,16.40
2022-07-28T02:28:05.983Z,16.30
2022-07-28T02:30:46.915Z,16.30
2022-07-28T02:33:59.294Z,16.30
2022-07-28T02:36:36.679Z,16.20
2022-07-28T02:39:21.719Z,16.20
2022-07-28T02:42:04.262Z,16.10
2022-07-28T02:44:42.670Z,16.10
2022-07-28T02:47:22.640Z,16.10
2022-07-28T02:49:58.354Z,16.10
2022-07-28T02:52:33.957Z,16.10
2022-07-28T02:55:07.214Z,16.00
2022-07-28T02:57:43.766Z,16.10
2022-07-28T03:00:16.859Z,16.00
2022-07-28T03:02:49.419Z,16.10
2022-07-28T03:05:23.015Z,16.10
2022-07-28T03:07:57.752Z,16.00
2022-07-28T03:10:33.131Z,16.10
2022-07-28T03:13:07.259Z,16.00
2022-07-28T03:15:40.267Z,16.00
2022-07-28T03:18:13.492Z,16.00
2022-07-28T03:20:46.062Z,16.00
2022-07-28T03:23:18.759Z,16.00
2022-07-28T03:25:54.244Z,16.00
2022-07-28T03:28:30.727Z,16.00
2022-07-28T03:31:09.520Z,15.90
2022-07-28T03:33:42.800Z,15.90
2022-07-28T03:36:18.986Z,15.90
2022-07-28T03:39:02.968Z,15.90
2022-07-28T03:41:38.675Z,15.90
2022-07-28T03:44:14.939Z,15.80
2022-07-28T03:47:00.210Z,15.80
2022-07-28T03:49:32.363Z,15.80
2022-07-28T03:52:05.099Z,15.80
2022-07-28T03:54:37.270Z,15.70
2022-07-28T03:57:09.905Z,15.70
2022-07-28T03:59:42.867Z,15.60
2022-07-28T04:02:15.015Z,15.60
2022-07-28T04:04:47.040Z,15.60
2022-07-28T04:07:19.089Z,15.50
2022-07-28T04:09:51.096Z,15.50
2022-07-28T04:12:23.024Z,15.50
2022-07-28T04:14:55.042Z,15.50
2022-07-28T04:17:27.020Z,15.40
2022-07-28T04:19:59.002Z,15.40
2022-07-28T04:22:30.900Z,15.40
2022-07-28T04:25:03.204Z,15.40
2022-07-28T04:27:36.649Z,15.50
2022-07-28T04:30:13.274Z,15.50
2022-07-28T04:32:51.154Z,15.50
2022-07-28T04:35:24.997Z,15.50
2022-07-28T04:37:58.925Z,15.60
2022-07-28T04:40:31.529Z,15.60
2022-07-28T04:43:05.982Z,15.60
2022-07-28T04:45:38.788Z,15.70
2022-07-28T04:48:18.551Z,15.80
2022-07-28T04:50:52.593Z,15.80
2022-07-28T04:53:25.093Z,15.90
2022-07-28T04:55:57.375Z,16.00
2022-07-28T04:58:30.945Z,16.00
2022-07-28T05:01:03.263Z,16.10
2022-07-28T05:03:36.467Z,16.10
2022-07-28T05:06:08.554Z,16.10
2022-07-28T05:08:40.525Z,16.20
2022-07-28T05:11:12.553Z,16.20
2022-07-28T05:13:44.530Z,16.20
2022-07-28T05:16:16.632Z,16.20
2022-07-28T05:18:49.950Z,16.30
2022-07-28T05:21:22.695Z,16.30
2022-07-28T05:23:55.445Z,16.30
2022-07-28T05:26:28.605Z,16.40
2022-07-28T05:29:03.054Z,16.40
2022-07-28T05:32:17.245Z,16.50
2022-07-28T05:34:49.894Z,16.60
2022-07-28T05:37:21.977Z,16.70
2022-07-28T05:39:53.911Z,16.80
2022-07-28T05:42:28.364Z,16.80
2022-07-28T05:45:15.586Z,17.00
2022-07-28T05:47:52.500Z,17.10
2022-07-28T05:50:27.539Z,17.20
2022-07-28T05:52:59.839Z,17.30
2022-07-28T05:55:31.820Z,17.40
2022-07-28T05:58:03.996Z,17.60
2022-07-28T06:00:36.216Z,17.80
2022-07-28T06:03:08.549Z,18.00
2022-07-28T06:06:00.758Z,18.20
2022-07-28T06:08:34.631Z,18.50
2022-07-28T06:11:11.391Z,18.70
2022-07-28T06:13:46.692Z,19.10
2022-07-28T06:16:21.073Z,19.50
2022-07-28T06:18:53.994Z,19.90
2022-07-28T06:21:26.231Z,20.40
2022-07-28T06:23:58.501Z,20.90
2022-07-28T06:26:31.552Z,21.40
2022-07-28T06:29:04.380Z,22.00
2022-07-28T06:31:36.966Z,22.40
2022-07-28T06:34:10.224Z,23.00
2022-07-28T06:36:42.261Z,23.50
2022-07-28T06:39:14.471Z,24.00
2022-07-28T06:41:46.484Z,24.50
2022-07-28T06:44:19.970Z,25.10
2022-07-28T06:46:52.421Z,25.50
2022-07-28T06:49:24.909Z,25.60
2022-07-28T06:51:57.135Z,25.90
2022-07-28T06:54:29.355Z,26.40
2022-07-28T06:57:01.512Z,26.90
2022-07-28T06:59:35.083Z,27.10
2022-07-28T07:02:07.212Z,27.60
2022-07-28T07:04:39.565Z,28.20
2022-07-28T07:07:42.986Z,28.50
2022-07-28T07:10:15.963Z,29.10
2022-07-28T07:12:48.130Z,29.50
2022-07-28T07:15:20.386Z,29.40
2022-07-28T07:17:54.222Z,29.60
2022-07-28T07:20:26.428Z,29.70
2022-07-28T07:22:58.949Z,30.10
2022-07-28T07:25:30.986Z,30.50
2022-07-28T07:28:03.149Z,30.20
2022-07-28T07:30:35.421Z,30.30
2022-07-28T07:33:10.564Z,30.30
2022-07-28T07:35:43.130Z,30.40
2022-07-28T07:38:15.507Z,30.60
2022-07-28T07:40:51.350Z,30.90
2022-07-28T07:43:23.605Z,31.10
2022-07-28T07:45:55.622Z,31.20
2022-07-28T07:48:30.989Z,31.60
2022-07-28T07:51:03.722Z,31.80
2022-07-28T07:53:36.247Z,32.10
2022-07-28T07:56:08.411Z,31.90
2022-07-28T07:58:40.625Z,31.90
2022-07-28T08:01:13.288Z,31.90
2022-07-28T08:04:05.822Z,32.10
2022-07-28T08:06:40.735Z,32.10
2022-07-28T08:09:13.200Z,32.20
2022-07-28T08:11:46.128Z,32.20
2022-07-28T08:14:18.755Z,32.30
2022-07-28T08:16:51.326Z,32.30
2022-07-28T08:19:23.916Z,32.50
2022-07-28T08:21:56.456Z,32.40
2022-07-28T08:24:33.568Z,32.40
2022-07-28T08:27:06.559Z,32.30
2022-07-28T08:29:39.612Z,31.90
2022-07-28T08:32:15.240Z,31.80
2022-07-28T08:34:47.512Z,31.60
2022-07-28T08:37:19.883Z,31.30
2022-07-28T08:39:52.069Z,31.30
2022-07-28T08:42:39.113Z,31.20
2022-07-28T08:45:37.229Z,31.20
2022-07-28T08:48:12.243Z,30.90
2022-07-28T08:50:46.219Z,30.40
2022-07-28T08:53:20.922Z,30.20
2022-07-28T08:55:53.763Z,30.00
2022-07-28T08:58:26.316Z,29.50
2022-07-28T09:00:59.254Z,29.30
2022-07-28T09:03:42.762Z,29.00
2022-07-28T09:06:15.561Z,28.90
2022-07-28T09:08:48.632Z,28.80
2022-07-28T09:11:20.770Z,28.70
2022-07-28T09:13:54.134Z,28.60
2022-07-28T09:16:27.067Z,28.50
2022-07-28T09:18:59.322Z,28.50
2022-07-28T09:21:31.760Z,28.40
2022-07-28T09:24:04.385Z,28.30
2022-07-28T09:26:37.096Z,28.10
2022-07-28T09:29:29.926Z,27.90
2022-07-28T09:32:02.391Z,27.90
2022-07-28T09:34:44.747Z,28.00
2022-07-28T09:37:27.953Z,28.10
2022-07-28T09:40:11.255Z,28.30
2022-07-28T09:42:50.267Z,28.30
2022-07-28T09:45:29.422Z,28.30
2022-07-28T09:48:11.157Z,28.30
2022-07-28T09:50:44.502Z,28.40
2022-07-28T09:53:27.403Z,28.50
2022-07-28T09:56:02.115Z,28.70
2022-07-28T09:58:34.690Z,28.80
2022-07-28T10:01:13.234Z,28.90
2022-07-28T10:03:51.627Z,28.90
2022-07-28T10:06:31.989Z,28.90
2022-07-28T10:09:08.189Z,28.90
2022-07-28T10:11:45.077Z,28.80
2022-07-28T10:14:21.444Z,28.80
2022-07-28T10:17:06.299Z,28.80
2022-07-28T10:19:41.117Z,28.90
2022-07-28T10:22:14.571Z,29.10
2022-07-28T10:24:52.748Z,29.20
2022-07-28T10:27:26.425Z,29.30
2022-07-28T10:30:15.666Z,29.40
2022-07-28T10:32:47.881Z,29.70
2022-07-28T10:35:21.026Z,29.80
2022-07-28T10:38:05.174Z,30.00
2022-07-28T10:40:46.848Z,30.00
2022-07-28T10:43:20.866Z,30.00
2022-07-28T10:46:05.713Z,30.10
2022-07-28T10:48:38.937Z,30.10
2022-07-28T10:51:12.142Z,30.00
2022-07-28T10:53:59.758Z,29.80
2022-07-28T10:56:46.733Z,29.50
2022-07-28T10:59:39.695Z,29.30
2022-07-28T11:02:55.415Z,29.30
2022-07-28T11:05:39.113Z,29.20
2022-07-28T11:08:20.120Z,29.20
2022-07-28T11:11:08.953Z,29.10
2022-07-28T11:13:41.779Z,29.10
2022-07-28T11:16:13.854Z,29.20
2022-07-28T11:19:04.720Z,29.50
2022-07-28T11:22:12.156Z,29.90
2022-07-28T11:25:17.897Z,30.00
2022-07-28T11:27:54.482Z,30.00
2022-07-28T11:30:32.909Z,29.90
2022-07-28T11:33:25.305Z,29.80
2022-07-28T11:36:17.201Z,29.60
2022-07-28T11:39:43.366Z,29.40
2022-07-28T11:42:35.754Z,29.20
2022-07-28T11:45:23.454Z,29.20
2022-07-28T11:48:16.905Z,29.20
2022-07-28T11:51:14.059Z,29.30
2022-07-28T11:53:49.617Z,29.20
2022-07-28T11:56:25.340Z,29.10
2022-07-28T11:59:02.669Z,29.10
2022-07-28T12:01:36.980Z,29.00
2022-07-28T12:04:28.806Z,29.00
2022-07-28T12:07:02.065Z,29.00
2022-07-28T12:09:42.330Z,29.10
2022-07-28T12:12:14.845Z,29.00
2022-07-28T12:14:46.999Z,29.00
2022-07-28T12:17:19.664Z,29.30
2022-07-28T12:20:06.001Z,29.90
2022-07-28T12:23:07.213Z,30.30
2022-07-28T12:25:47.034Z,30.50
2022-07-28T12:28:22.606Z,30.60
2022-07-28T12:30:54.957Z,30.50
2022-07-28T12:33:40.741Z,30.50
2022-07-28T12:36:12.975Z,30.50
2022-07-28T12:38:51.241Z,30.50
2022-07-28T12:41:32.635Z,30.60
2022-07-28T12:44:06.341Z,30.70
2022-07-28T12:47:08.362Z,30.60
2022-07-28T12:49:43.993Z,30.60
2022-07-28T12:52:22.546Z,30.80
2022-07-28T12:54:56.774Z,31.00
2022-07-28T12:57:49.241Z,31.30
2022-07-28T13:00:31.287Z,31.20
2022-07-28T13:03:29.889Z,31.20
2022-07-28T13:06:10.789Z,31.20
2022-07-28T13:08:46.588Z,31.10
2022-07-28T13:11:45.751Z,31.00
2022-07-28T13:14:39.833Z,31.20
2022-07-28T13:17:13.015Z,31.30
2022-07-28T13:19:46.431Z,31.30
2022-07-28T13:22:30.306Z,31.40
2022-07-28T13:25:07.960Z,31.30
2022-07-28T13:27:41.678Z,31.20
2022-07-28T13:30:14.136Z,31.20
2022-07-28T13:32:46.454Z,31.10
2022-07-28T13:35:20.851Z,31.10
2022-07-28T13:37:53.677Z,31.10
2022-07-28T13:40:25.791Z,31.20
2022-07-28T13:42:58.195Z,31.20
2022-07-28T13:45:30.717Z,31.20
2022-07-28T13:48:06.760Z,31.00
2022-07-28T13:50:39.405Z,30.90
2022-07-28T13:53:12.194Z,30.80
2022-07-28T13:55:44.297Z,30.80
2022-07-28T13:58:16.362Z,30.70
2022-07-28T14:00:48.969Z,30.70
2022-07-28T14:03:21.132Z,30.70
2022-07-28T14:05:53.314Z,30.60
2022-07-28T14:08:26.733Z,30.40
2022-07-28T14:11:01.260Z,30.50
2022-07-28T14:13:47.787Z,30.50
2022-07-28T14:16:24.273Z,30.90
2022-07-28T14:19:13.903Z,31.30
2022-07-28T14:21:48.396Z,31.60
2022-07-28T14:24:21.106Z,31.90
2022-07-28T14:26:53.496Z,32.10
2022-07-28T14:29:25.952Z,32.30
2022-07-28T14:31:59.512Z,32.40
2022-07-28T14:34:31.785Z,32.50
2022-07-28T14:37:08.859Z,32.50
2022-07-28T14:39:42.145Z,32.70
2022-07-28T14:42:14.590Z,32.70
2022-07-28T14:44:46.926Z,32.60
2022-07-28T14:47:20.179Z,32.60
2022-07-28T14:50:13.589Z,32.60
2022-07-28T14:52:45.808Z,32.60
2022-07-28T14:55:20.227Z,32.60
2022-07-28T14:57:55.010Z,32.60
2022-07-28T15:00:28.645Z,32.60
2022-07-28T15:03:01.402Z,32.50
2022-07-28T15:05:34.770Z,32.50
2022-07-28T15:08:06.854Z,32.40
2022-07-28T15:10:39.002Z,32.40
2022-07-28T15:13:11.063Z,32.40
2022-07-28T15:15:44.898Z,32.50
2022-07-28T15:18:19.624Z,32.60
2022-07-28T15:20:52.153Z,32.60
2022-07-28T15:23:27.517Z,32.70
2022-07-28T15:25:59.836Z,32.70
2022-07-28T15:28:33.016Z,32.80
2022-07-28T15:31:08.416Z,32.80
2022-07-28T15:33:48.366Z,32.90
2022-07-28T15:36:30.158Z,32.90
2022-07-28T15:39:08.946Z,32.90
2022-07-28T15:41:46.543Z,32.80
2022-07-28T15:44:22.407Z,32.80
2022-07-28T15:47:00.710Z,32.80
2022-07-28T15:49:36.300Z,32.80
2022-07-28T15:52:08.555Z,32.80
2022-07-28T15:54:40.966Z,32.60
2022-07-28T15:57:14.212Z,32.50
2022-07-28T15:59:50.065Z,32.30
2022-07-28T16:02:23.007Z,32.20
2022-07-28T16:04:55.192Z,32.00
2022-07-28T16:07:29.485Z,31.80
2022-07-28T16:10:03.135Z,31.60
2022-07-28T16:12:35.730Z,31.50
2022-07-28T16:15:08.940Z,31.40
2022-07-28T16:17:44.691Z,31.30
2022-07-28T16:20:17.810Z,31.30
2022-07-28T16:22:51.211Z,31.30
2022-07-28T16:25:26.251Z,31.20
2022-07-28T16:27:58.612Z,31.10
2022-07-28T16:30:33.434Z,31.00
2022-07-28T16:33:08.187Z,30.80
2022-07-28T16:35:40.576Z,30.80
2022-07-28T16:38:12.937Z,30.70
2022-07-28T16:40:45.103Z,30.70
2022-07-28T16:43:17.599Z,30.60
2022-07-28T16:45:49.752Z,30.60
2022-07-28T16:48:22.043Z,30.60
2022-07-28T16:50:54.915Z,30.60
2022-07-28T16:53:27.458Z,30.50
2022-07-28T16:55:59.702Z,30.30
2022-07-28T16:58:31.932Z,30.20
2022-07-28T17:01:04.305Z,30.20
2022-07-28T17:03:36.609Z,30.00
2022-07-28T17:06:10.857Z,29.80
2022-07-28T17:08:43.086Z,29.70
2022-07-28T17:11:15.193Z,29.60
2022-07-28T17:13:48.720Z,29.50
2022-07-28T17:16:21.035Z,29.40
2022-07-28T17:18:53.510Z,29.30
2022-07-28T17:21:26.175Z,29.30
2022-07-28T17:23:58.630Z,29.20
2022-07-28T17:29:26.511Z,29.20
2022-07-28T17:31:59.100Z,29.10
2022-07-28T17:34:32.126Z,29.00
2022-07-28T17:37:05.812Z,28.90
2022-07-28T17:39:38.041Z,28.80
2022-07-28T17:42:10.213Z,28.70
2022-07-28T17:44:42.820Z,28.60
2022-07-28T17:47:16.513Z,28.50
2022-07-28T17:49:52.373Z,28.40
2022-07-28T17:52:25.327Z,28.30
2022-07-28T17:55:16.566Z,28.20
2022-07-28T17:58:22.748Z,28.10
2022-07-28T18:01:12.194Z,28.00
2022-07-28T18:03:56.691Z,27.90
2022-07-28T18:06:35.637Z,27.90
2022-07-28T18:09:10.610Z,27.80
2022-07-28T18:11:55.984Z,27.90
2022-07-28T18:14:31.057Z,27.80
2022-07-28T18:17:03.604Z,27.70
2022-07-28T18:19:35.898Z,27.70
2022-07-28T18:22:08.136Z,27.70
2022-07-28T18:24:40.622Z,27.60
2022-07-28T18:27:12.937Z,27.50
2022-07-28T18:29:45.135Z,27.50
2022-07-28T18:32:18.818Z,27.40
2022-07-28T18:34:50.959Z,27.40
2022-07-28T18:37:23.080Z,27.30
2022-07-28T18:39:55.400Z,27.30
2022-07-28T18:42:27.603Z,27.30
2022-07-28T18:45:02.542Z,27.30
2022-07-28T18:47:37.503Z,27.20
2022-07-28T18:50:30.387Z,27.30
2022-07-28T18:53:31.142Z,27.20
2022-07-28T18:56:27.693Z,27.10
2022-07-28T18:58:59.903Z,27.10
2022-07-28T19:01:32.373Z,27.00
2022-07-28T19:04:05.136Z,27.00
2022-07-28T19:06:37.677Z,26.80
2022-07-28T19:09:09.948Z,26.80
2022-07-28T19:11:45.972Z,26.70
2022-07-28T19:14:19.215Z,26.70
2022-07-28T19:16:52.012Z,26.60
2022-07-28T19:19:24.562Z,26.50
2022-07-28T19:21:56.833Z,26.40
2022-07-28T19:24:29.041Z,26.40
2022-07-28T19:27:05.928Z,26.30
2022-07-28T19:29:38.572Z,26.30
2022-07-28T19:32:10.917Z,26.20
2022-07-28T19:34:43.074Z,26.20
2022-07-28T19:37:17.035Z,26.20
2022-07-28T19:39:50.067Z,26.10
2022-07-28T19:42:22.265Z,26.10
2022-07-28T19:44:56.135Z,26.00
2022-07-28T19:47:28.676Z,26.10
2022-07-28T19:50:00.863Z,26.00
2022-07-28T19:52:33.857Z,26.00
2022-07-28T19:55:07.885Z,26.00
2022-07-28T19:57:42.339Z,25.90
2022-07-28T20:00:19.179Z,25.90
2022-07-28T20:02:51.669Z,25.90
2022-07-28T20:05:24.340Z,25.80
2022-07-28T20:07:56.633Z,25.80
2022-07-28T20:10:29.031Z,25.80
2022-07-28T20:13:02.606Z,25.80
2022-07-28T20:15:35.109Z,25.80
2022-07-28T20:18:09.813Z,25.80
2022-07-28T20:20:42.501Z,25.80
2022-07-28T20:23:15.625Z,25.70
2022-07-28T20:25:47.923Z,25.70
2022-07-28T20:28:21.469Z,25.60
2022-07-28T20:30:54.689Z,25.50
2022-07-28T20:33:27.451Z,25.60
2022-07-28T20:36:00.810Z,25.50
2022-07-28T20:38:33.792Z,25.40
2022-07-28T20:41:07.459Z,25.40
2022-07-28T20:43:39.642Z,25.20
2022-07-28T20:46:11.759Z,25.10
2022-07-28T20:48:43.897Z,24.80
2022-07-28T20:51:18.172Z,24.60
2022-07-28T20:53:50.419Z,24.30
2022-07-28T20:56:34.762Z,24.10
2022-07-28T20:59:07.705Z,23.90
2022-07-28T21:01:41.013Z,23.80
2022-07-28T21:04:13.561Z,23.60
2022-07-28T21:06:51.130Z,23.50
2022-07-28T21:09:24.357Z,23.40
2022-07-28T21:11:56.628Z,23.30
2022-07-28T21:14:28.708Z,23.20
2022-07-28T21:17:03.442Z,23.20
2022-07-28T21:19:35.771Z,23.10
2022-07-28T21:22:08.115Z,23.00
2022-07-28T21:24:40.430Z,22.90
2022-07-28T21:27:12.904Z,22.70
2022-07-28T21:29:48.737Z,22.60
2022-07-28T21:32:21.623Z,22.50
2022-07-28T21:34:53.972Z,22.40
2022-07-28T21:37:26.230Z,22.20
2022-07-28T21:39:58.411Z,22.10
2022-07-28T21:42:31.065Z,22.10
2022-07-28T21:45:03.561Z,22.00
2022-07-28T21:47:40.659Z,22.00
2022-07-28T21:50:13.689Z,22.00
2022-07-28T21:52:45.959Z,21.90
2022-07-28T21:55:18.092Z,21.90
2022-07-28T21:57:50.268Z,21.90
2022-07-28T22:00:22.595Z,21.80
2022-07-28T22:02:54.833Z,21.80
2022-07-28T22:05:27.299Z,21.80
2022-07-28T22:08:00.472Z,21.70
2022-07-28T22:10:32.545Z,21.60
2022-07-28T22:13:04.697Z,21.50
2022-07-28T22:15:36.830Z,21.50
2022-07-28T22:18:13.443Z,21.40
2022-07-28T22:20:48.611Z,21.40
2022-07-28T22:23:29.198Z,21.30
2022-07-28T22:26:02.418Z,21.30
2022-07-28T22:28:34.372Z,21.30
2022-07-28T22:31:08.674Z,21.30
2022-07-28T22:33:41.733Z,21.30
2022-07-28T22:36:14.296Z,21.20
2022-07-28T22:38:46.554Z,21.20
2022-07-28T22:41:18.739Z,21.20
2022-07-28T22:43:51.095Z,21.20
2022-07-28T22:46:23.198Z,21.20
2022-07-28T22:48:55.444Z,21.20
2022-07-28T22:51:27.934Z,21.20
2022-07-28T22:54:00.579Z,21.20
2022-07-28T22:56:35.012Z,21.10
2022-07-28T22:59:10.228Z,21.10
2022-07-28T23:01:44.543Z,21.00
2022-07-28T23:04:17.188Z,21.00
2022-07-28T23:06:50.708Z,21.00
2022-07-28T23:09:23.070Z,20.90
2022-07-28T23:11:55.940Z,20.90
2022-07-28T23:14:28.486Z,20.90
2022-07-28T23:17:00.577Z,21.00
2022-07-28T23:19:32.819Z,20.90
2022-07-28T23:22:05.064Z,21.00
2022-07-28T23:24:37.117Z,20.90
2022-07-28T23:27:09.646Z,21.00
2022-07-28T23:29:41.912Z,21.00
2022-07-28T23:32:17.125Z,21.00
2022-07-28T23:34:49.733Z,20.90
2022-07-28T23:37:21.747Z,21.00
2022-07-28T23:39:54.450Z,20.90
2022-07-28T23:42:26.634Z,21.00
2022-07-28T23:44:58.730Z,20.90
2022-07-28T23:47:30.700Z,20.90
2022-07-28T23:50:05.860Z,20.90
2022-07-28T23:52:38.180Z,20.90
2022-07-28T23:55:10.466Z,20.80
2022-07-28T23:57:42.498Z,20.80
